createdAt,value
2019-03-03T00:00:36.051Z,37.40
2019-03-03T00:01:36.040Z,36.80
2019-03-03T00:02:36.030Z,39.00
2019-03-03T00:03:36.027Z,38.10
2019-03-03T00:04:36.009Z,37.10
2019-03-03T00:05:35.997Z,37.10
2019-03-03T00:06:35.986Z,35.60
2019-03-03T00:07:35.975Z,35.90
2019-03-03T00:08:35.986Z,35.70
2019-03-03T00:09:35.954Z,37.30
2019-03-03T00:10:35.957Z,39.20
2019-03-03T00:11:35.931Z,37.50
2019-03-03T00:12:35.921Z,36.30
2019-03-03T00:13:35.921Z,35.90
2019-03-03T00:14:35.900Z,37.40
2019-03-03T00:15:35.889Z,36.20
2019-03-03T00:16:35.882Z,37.30
2019-03-03T00:17:35.868Z,36.50
2019-03-03T00:18:35.865Z,38.40
2019-03-03T00:19:35.845Z,38.20
2019-03-03T00:20:35.834Z,36.10
2019-03-03T00:21:35.824Z,36.90
2019-03-03T00:22:35.813Z,37.90
2019-03-03T00:23:35.816Z,36.40
2019-03-03T00:24:35.792Z,38.60
2019-03-03T00:25:35.784Z,35.50
2019-03-03T00:26:35.770Z,36.90
2019-03-03T00:27:35.759Z,36.00
2019-03-03T00:28:35.759Z,37.40
2019-03-03T00:29:35.737Z,37.90
2019-03-03T00:30:35.725Z,37.50
2019-03-03T00:31:35.715Z,37.60
2019-03-03T00:32:35.704Z,37.60
2019-03-03T00:33:35.704Z,37.50
2019-03-03T00:34:35.683Z,37.80
2019-03-03T00:35:35.671Z,38.70
2019-03-03T00:36:35.665Z,38.10
2019-03-03T00:37:35.651Z,37.80
2019-03-03T00:38:35.648Z,38.40
2019-03-03T00:39:35.628Z,38.50
2019-03-03T00:40:35.618Z,39.10
2019-03-03T00:41:35.608Z,38.50
2019-03-03T00:42:35.595Z,39.70
2019-03-03T00:43:35.610Z,38.90
2019-03-03T00:44:35.573Z,40.30
2019-03-03T00:45:35.562Z,39.00
2019-03-03T00:46:35.555Z,37.70
2019-03-03T00:47:35.542Z,37.20
2019-03-03T00:48:35.531Z,37.30
2019-03-03T00:49:35.528Z,38.00
2019-03-03T00:50:35.508Z,42.00
2019-03-03T00:51:35.497Z,38.60
2019-03-03T00:52:35.486Z,39.90
2019-03-03T00:53:35.476Z,41.30
2019-03-03T00:54:35.480Z,37.60
2019-03-03T00:55:35.454Z,39.70
2019-03-03T00:56:35.443Z,38.60
2019-03-03T00:57:35.431Z,39.30
2019-03-03T00:58:35.421Z,40.30
2019-03-03T00:59:35.418Z,38.40
2019-03-03T01:00:35.399Z,40.00
2019-03-03T01:01:35.387Z,38.30
2019-03-03T01:02:35.377Z,41.00
2019-03-03T01:03:35.366Z,38.00
2019-03-03T01:04:35.364Z,38.30
2019-03-03T01:05:35.344Z,38.40
2019-03-03T01:06:35.340Z,38.70
2019-03-03T01:07:35.322Z,40.20
2019-03-03T01:08:35.311Z,39.70
2019-03-03T01:09:35.312Z,40.00
2019-03-03T01:10:35.291Z,39.20
2019-03-03T01:11:35.279Z,40.10
2019-03-03T01:12:35.268Z,41.40
2019-03-03T01:13:35.256Z,39.70
2019-03-03T01:14:35.255Z,41.00
2019-03-03T01:15:35.235Z,39.20
2019-03-03T01:16:35.225Z,40.50
2019-03-03T01:17:35.217Z,40.00
2019-03-03T01:18:35.202Z,38.40
2019-03-03T01:19:35.242Z,41.90
2019-03-03T01:20:35.180Z,40.90
2019-03-03T01:21:35.170Z,42.20
2019-03-03T01:22:35.160Z,41.90
2019-03-03T01:23:35.152Z,40.50
2019-03-03T01:24:35.138Z,39.50
2019-03-03T01:25:35.138Z,40.70
2019-03-03T01:26:35.147Z,40.70
2019-03-03T01:27:35.112Z,41.50
2019-03-03T01:28:35.101Z,42.50
2019-03-03T01:29:35.087Z,42.10
2019-03-03T01:30:35.082Z,44.20
2019-03-03T01:31:35.061Z,41.90
2019-03-03T01:32:35.053Z,44.20
2019-03-03T01:33:35.045Z,46.00
2019-03-03T01:34:35.028Z,50.00
2019-03-03T01:35:35.026Z,50.70
2019-03-03T01:36:35.006Z,51.40
2019-03-03T01:37:34.996Z,52.50
2019-03-03T01:38:34.985Z,52.60
2019-03-03T01:39:34.975Z,54.60
2019-03-03T01:40:34.978Z,57.90
2019-03-03T01:41:34.962Z,54.10
2019-03-03T01:42:34.942Z,55.90
2019-03-03T01:43:34.931Z,55.30
2019-03-03T01:44:34.920Z,55.60
2019-03-03T01:45:34.922Z,58.50
2019-03-03T01:46:34.901Z,61.30
2019-03-03T01:47:34.888Z,59.40
2019-03-03T01:48:34.877Z,66.70
2019-03-03T01:49:34.919Z,57.50
2019-03-03T01:50:34.863Z,57.80
2019-03-03T01:51:34.849Z,58.10
2019-03-03T01:52:34.833Z,60.40
2019-03-03T01:53:34.873Z,60.40
2019-03-03T01:54:34.812Z,62.90
2019-03-03T01:55:34.812Z,62.20
2019-03-03T01:56:34.793Z,60.60
2019-03-03T01:57:34.780Z,64.60
2019-03-03T01:58:34.802Z,60.30
2019-03-03T01:59:34.757Z,63.00
2019-03-03T02:00:34.760Z,62.90
2019-03-03T02:01:34.740Z,60.90
2019-03-03T02:02:34.724Z,61.00
2019-03-03T02:03:34.715Z,61.60
2019-03-03T02:04:34.707Z,61.60
2019-03-03T02:05:34.694Z,61.70
2019-03-03T02:06:34.691Z,58.50
2019-03-03T02:07:34.669Z,61.40
2019-03-03T02:08:34.659Z,60.10
2019-03-03T02:09:34.650Z,59.70
2019-03-03T02:10:34.637Z,56.00
2019-03-03T02:11:34.640Z,57.10
2019-03-03T02:12:34.614Z,54.80
2019-03-03T02:13:34.608Z,58.90
2019-03-03T02:14:34.597Z,59.50
2019-03-03T02:15:34.587Z,59.50
2019-03-03T02:16:34.580Z,56.50
2019-03-03T02:17:34.562Z,55.30
2019-03-03T02:18:34.554Z,59.50
2019-03-03T02:19:34.541Z,61.50
2019-03-03T02:20:34.528Z,58.70
2019-03-03T02:21:34.526Z,58.80
2019-03-03T02:22:34.506Z,61.10
2019-03-03T02:23:34.498Z,58.60
2019-03-03T02:24:34.490Z,60.80
2019-03-03T02:25:34.473Z,58.70
2019-03-03T02:26:34.475Z,57.80
2019-03-03T02:27:34.451Z,55.40
2019-03-03T02:28:34.440Z,61.00
2019-03-03T02:29:34.431Z,62.10
2019-03-03T02:30:34.420Z,62.40
2019-03-03T02:31:34.423Z,58.50
2019-03-03T02:32:34.397Z,65.10
2019-03-03T02:33:34.402Z,58.80
2019-03-03T02:34:34.376Z,61.70
2019-03-03T02:35:34.366Z,61.10
2019-03-03T02:36:34.367Z,60.20
2019-03-03T02:37:34.345Z,55.10
2019-03-03T02:38:34.341Z,61.00
2019-03-03T02:39:34.321Z,57.80
2019-03-03T02:40:34.309Z,63.90
2019-03-03T02:41:34.308Z,57.10
2019-03-03T02:42:34.306Z,63.40
2019-03-03T02:43:34.283Z,62.10
2019-03-03T02:44:34.269Z,61.30
2019-03-03T02:45:34.257Z,64.70
2019-03-03T02:46:34.253Z,60.30
2019-03-03T02:47:34.239Z,61.90
2019-03-03T02:48:34.223Z,65.50
2019-03-03T02:49:34.216Z,65.70
2019-03-03T02:50:34.204Z,66.00
2019-03-03T02:51:34.199Z,67.70
2019-03-03T02:52:34.180Z,66.50
2019-03-03T02:53:34.171Z,65.50
2019-03-03T02:54:34.159Z,73.00
2019-03-03T02:55:34.147Z,70.60
2019-03-03T02:56:34.145Z,72.50
2019-03-03T02:57:34.126Z,81.80
2019-03-03T02:58:34.123Z,77.10
2019-03-03T02:59:34.107Z,82.20
2019-03-03T03:00:34.096Z,84.80
2019-03-03T03:01:34.092Z,85.00
2019-03-03T03:02:34.104Z,82.20
2019-03-03T03:03:34.063Z,92.00
2019-03-03T03:04:34.050Z,88.50
2019-03-03T03:05:34.041Z,98.50
2019-03-03T03:06:34.054Z,89.60
2019-03-03T03:07:34.022Z,97.10
2019-03-03T03:08:34.008Z,91.00
2019-03-03T03:09:33.997Z,90.50
2019-03-03T03:10:33.987Z,88.20
2019-03-03T03:11:33.983Z,92.00
2019-03-03T03:12:33.974Z,86.70
2019-03-03T03:13:33.960Z,85.70
2019-03-03T03:14:33.957Z,97.80
2019-03-03T03:15:33.933Z,88.00
2019-03-03T03:16:33.925Z,87.50
2019-03-03T03:17:33.919Z,92.60
2019-03-03T03:18:33.900Z,93.90
2019-03-03T03:19:33.893Z,97.90
2019-03-03T03:20:33.880Z,75.80
2019-03-03T03:21:33.869Z,83.20
2019-03-03T03:22:33.866Z,96.70
2019-03-03T03:23:33.845Z,89.90
2019-03-03T03:24:33.835Z,79.10
2019-03-03T03:25:33.832Z,92.70
2019-03-03T03:26:33.815Z,79.40
2019-03-03T03:27:33.812Z,80.00
2019-03-03T03:28:33.793Z,93.80
2019-03-03T03:29:33.783Z,90.40
2019-03-03T03:30:33.772Z,82.30
2019-03-03T03:31:33.762Z,82.80
2019-03-03T03:32:33.771Z,89.60
2019-03-03T03:33:33.741Z,101.00
2019-03-03T03:34:33.729Z,86.00
2019-03-03T03:35:33.725Z,86.60
2019-03-03T03:36:36.578Z,102.40
2019-03-03T03:37:33.707Z,96.60
2019-03-03T03:38:33.686Z,90.50
2019-03-03T03:39:33.676Z,91.10
2019-03-03T03:40:33.664Z,92.50
2019-03-03T03:41:33.661Z,102.00
2019-03-03T03:42:33.654Z,82.20
2019-03-03T03:43:33.635Z,91.80
2019-03-03T03:44:33.622Z,118.40
2019-03-03T03:45:33.612Z,84.80
2019-03-03T03:46:33.604Z,95.70
2019-03-03T03:47:33.597Z,90.20
2019-03-03T03:48:33.579Z,99.20
2019-03-03T03:49:33.568Z,82.80
2019-03-03T03:50:33.558Z,86.50
2019-03-03T03:51:33.552Z,91.60
2019-03-03T03:52:33.545Z,96.00
2019-03-03T03:53:33.530Z,86.40
2019-03-03T03:54:33.514Z,86.20
2019-03-03T03:55:33.508Z,82.70
2019-03-03T03:56:33.495Z,93.80
2019-03-03T03:57:33.519Z,110.80
2019-03-03T03:58:33.480Z,97.10
2019-03-03T03:59:33.460Z,90.50
2019-03-03T04:00:33.450Z,95.40
2019-03-03T04:01:33.437Z,89.00
2019-03-03T04:02:33.435Z,110.20
2019-03-03T04:03:33.429Z,101.00
2019-03-03T04:04:33.409Z,87.60
2019-03-03T04:05:33.394Z,86.70
2019-03-03T04:06:33.390Z,102.10
2019-03-03T04:07:33.374Z,103.50
2019-03-03T04:08:33.369Z,89.60
2019-03-03T04:09:33.355Z,93.40
2019-03-03T04:10:33.347Z,84.00
2019-03-03T04:11:33.330Z,90.20
2019-03-03T04:12:33.317Z,79.30
2019-03-03T04:13:33.326Z,90.40
2019-03-03T04:14:33.301Z,80.30
2019-03-03T04:15:33.285Z,97.10
2019-03-03T04:16:33.275Z,80.80
2019-03-03T04:17:33.263Z,89.30
2019-03-03T04:18:33.270Z,86.60
2019-03-03T04:19:33.253Z,77.70
2019-03-03T04:20:33.231Z,89.00
2019-03-03T04:21:33.221Z,77.90
2019-03-03T04:22:33.211Z,85.40
2019-03-03T04:23:33.209Z,82.50
2019-03-03T04:24:33.188Z,78.60
2019-03-03T04:25:33.178Z,75.50
2019-03-03T04:26:33.168Z,77.20
2019-03-03T04:27:33.159Z,82.50
2019-03-03T04:28:33.155Z,77.80
2019-03-03T04:29:33.136Z,80.50
2019-03-03T04:30:33.124Z,84.90
2019-03-03T04:31:33.114Z,90.70
2019-03-03T04:32:33.101Z,80.20
2019-03-03T04:33:33.115Z,89.10
2019-03-03T04:34:33.084Z,87.10
2019-03-03T04:35:33.070Z,77.30
2019-03-03T04:36:33.061Z,73.60
2019-03-03T04:37:33.047Z,73.70
2019-03-03T04:38:33.038Z,78.90
2019-03-03T04:39:33.034Z,71.40
2019-03-03T04:40:33.015Z,80.90
2019-03-03T04:41:33.004Z,78.60
2019-03-03T04:42:32.992Z,86.20
2019-03-03T04:43:32.987Z,68.90
2019-03-03T04:44:32.980Z,66.70
2019-03-03T04:45:32.959Z,70.70
2019-03-03T04:46:32.948Z,66.00
2019-03-03T04:47:32.939Z,61.70
2019-03-03T04:48:32.928Z,55.80
2019-03-03T04:49:32.925Z,69.10
2019-03-03T04:50:32.905Z,70.80
2019-03-03T04:51:32.894Z,66.10
2019-03-03T04:52:32.884Z,65.00
2019-03-03T04:53:32.874Z,53.30
2019-03-03T04:54:32.874Z,53.90
2019-03-03T04:55:32.851Z,53.50
2019-03-03T04:56:32.843Z,55.80
2019-03-03T04:57:32.830Z,59.30
2019-03-03T04:58:32.818Z,52.10
2019-03-03T04:59:32.816Z,54.20
2019-03-03T05:00:32.799Z,52.80
2019-03-03T05:01:32.786Z,60.80
2019-03-03T05:02:32.781Z,57.40
2019-03-03T05:03:32.764Z,64.70
2019-03-03T05:04:32.762Z,54.00
2019-03-03T05:05:32.743Z,55.60
2019-03-03T05:06:32.733Z,60.90
2019-03-03T05:07:32.724Z,53.90
2019-03-03T05:08:32.710Z,49.80
2019-03-03T05:09:32.731Z,57.70
2019-03-03T05:10:32.689Z,62.10
2019-03-03T05:11:32.681Z,53.50
2019-03-03T05:12:32.673Z,60.90
2019-03-03T05:13:32.657Z,51.80
2019-03-03T05:14:32.647Z,50.00
2019-03-03T05:15:32.648Z,48.90
2019-03-03T05:16:32.626Z,53.70
2019-03-03T05:17:32.615Z,57.30
2019-03-03T05:18:32.604Z,56.70
2019-03-03T05:19:32.592Z,56.30
2019-03-03T05:20:32.595Z,58.00
2019-03-03T05:21:32.572Z,57.40
2019-03-03T05:22:32.561Z,52.60
2019-03-03T05:23:32.549Z,55.40
2019-03-03T05:24:34.592Z,49.90
2019-03-03T05:25:32.541Z,47.00
2019-03-03T05:26:32.518Z,50.40
2019-03-03T05:27:32.507Z,46.90
2019-03-03T05:28:32.497Z,49.90
2019-03-03T05:29:32.487Z,52.90
2019-03-03T05:30:32.494Z,47.80
2019-03-03T05:31:32.476Z,54.60
2019-03-03T05:32:32.454Z,51.00
2019-03-03T05:33:32.444Z,47.90
2019-03-03T05:34:32.435Z,39.00
2019-03-03T05:35:32.430Z,45.30
2019-03-03T05:36:32.411Z,45.40
2019-03-03T05:37:32.404Z,45.20
2019-03-03T05:38:32.392Z,47.00
2019-03-03T05:39:32.380Z,45.40
2019-03-03T05:40:32.378Z,42.20
2019-03-03T05:41:32.358Z,44.70
2019-03-03T05:42:32.350Z,43.80
2019-03-03T05:43:32.339Z,41.50
2019-03-03T05:44:32.325Z,44.20
2019-03-03T05:45:32.324Z,45.90
2019-03-03T05:46:32.304Z,45.80
2019-03-03T05:47:32.298Z,48.80
2019-03-03T05:48:32.283Z,42.50
2019-03-03T05:49:32.274Z,44.20
2019-03-03T05:50:32.270Z,44.40
2019-03-03T05:51:32.250Z,39.20
2019-03-03T05:52:32.240Z,44.20
2019-03-03T05:53:32.229Z,41.60
2019-03-03T05:54:32.218Z,41.00
2019-03-03T05:55:32.220Z,36.20
2019-03-03T05:56:32.198Z,37.80
2019-03-03T05:57:32.186Z,36.90
2019-03-03T05:58:32.175Z,32.40
2019-03-03T05:59:32.165Z,36.20
2019-03-03T06:00:32.187Z,35.60
2019-03-03T06:01:32.143Z,35.20
2019-03-03T06:02:32.132Z,30.50
2019-03-03T06:03:32.122Z,37.30
2019-03-03T06:04:32.111Z,34.00
2019-03-03T06:05:32.099Z,34.50
2019-03-03T06:06:32.098Z,34.00
2019-03-03T06:07:32.079Z,33.10
2019-03-03T06:08:32.069Z,30.60
2019-03-03T06:09:32.058Z,28.90
2019-03-03T06:10:32.047Z,30.20
2019-03-03T06:11:32.044Z,34.80
2019-03-03T06:12:32.040Z,36.40
2019-03-03T06:13:32.016Z,28.70
2019-03-03T06:14:32.003Z,30.60
2019-03-03T06:15:31.993Z,27.60
2019-03-03T06:16:31.990Z,28.30
2019-03-03T06:17:31.975Z,32.30
2019-03-03T06:18:31.960Z,30.10
2019-03-03T06:19:31.993Z,28.60
2019-03-03T06:20:31.938Z,31.10
2019-03-03T06:21:31.937Z,28.90
2019-03-03T06:22:31.918Z,28.50
2019-03-03T06:23:31.905Z,25.20
2019-03-03T06:24:31.895Z,27.50
2019-03-03T06:25:31.884Z,28.70
2019-03-03T06:26:31.881Z,24.10
2019-03-03T06:27:31.863Z,26.70
2019-03-03T06:28:31.852Z,25.80
2019-03-03T06:29:31.847Z,26.40
2019-03-03T06:30:31.831Z,25.40
2019-03-03T06:31:31.828Z,25.10
2019-03-03T06:32:31.808Z,23.80
2019-03-03T06:33:31.797Z,24.10
2019-03-03T06:34:31.789Z,21.90
2019-03-03T06:35:31.778Z,24.90
2019-03-03T06:36:31.774Z,23.10
2019-03-03T06:37:31.755Z,22.30
2019-03-03T06:38:31.747Z,23.60
2019-03-03T06:39:31.735Z,24.30
2019-03-03T06:40:31.745Z,21.50
2019-03-03T06:41:31.723Z,20.90
2019-03-03T06:42:31.698Z,20.50
2019-03-03T06:43:31.695Z,22.30
2019-03-03T06:44:31.679Z,19.60
2019-03-03T06:45:31.667Z,20.80
2019-03-03T06:46:31.664Z,18.70
2019-03-03T06:47:31.646Z,20.90
2019-03-03T06:48:31.635Z,20.50
2019-03-03T06:49:31.625Z,19.70
2019-03-03T06:50:31.614Z,18.20
2019-03-03T06:51:31.611Z,22.20
2019-03-03T06:52:31.592Z,19.40
2019-03-03T06:53:31.595Z,19.60
2019-03-03T06:54:31.570Z,19.60
2019-03-03T06:55:31.558Z,18.50
2019-03-03T06:56:31.556Z,19.20
2019-03-03T06:57:31.540Z,18.50
2019-03-03T06:58:31.533Z,19.20
2019-03-03T06:59:31.515Z,16.60
2019-03-03T07:00:31.519Z,16.80
2019-03-03T07:01:31.502Z,17.20
2019-03-03T07:02:31.482Z,15.50
2019-03-03T07:03:31.473Z,16.50
2019-03-03T07:04:31.465Z,17.10
2019-03-03T07:05:31.450Z,15.30
2019-03-03T07:06:31.447Z,13.90
2019-03-03T07:07:31.428Z,15.30
2019-03-03T07:08:31.422Z,14.90
2019-03-03T07:09:31.406Z,15.10
2019-03-03T07:10:31.395Z,14.80
2019-03-03T07:11:31.392Z,14.60
2019-03-03T07:12:31.374Z,13.40
2019-03-03T07:13:31.362Z,14.20
2019-03-03T07:14:31.351Z,13.60
2019-03-03T07:15:31.341Z,14.10
2019-03-03T07:16:31.338Z,15.40
2019-03-03T07:17:31.318Z,13.50
2019-03-03T07:18:31.310Z,14.30
2019-03-03T07:19:31.296Z,12.50
2019-03-03T07:20:31.286Z,12.10
2019-03-03T07:21:31.318Z,13.10
2019-03-03T07:22:31.266Z,11.90
2019-03-03T07:23:31.254Z,13.70
2019-03-03T07:24:31.243Z,12.70
2019-03-03T07:25:31.232Z,13.20
2019-03-03T07:26:31.225Z,12.40
2019-03-03T07:27:31.219Z,14.30
2019-03-03T07:28:31.198Z,12.50
2019-03-03T07:29:31.187Z,11.80
2019-03-03T07:30:31.178Z,11.90
2019-03-03T07:31:31.167Z,11.90
2019-03-03T07:32:31.164Z,12.10
2019-03-03T07:33:31.146Z,12.10
2019-03-03T07:34:31.133Z,12.40
2019-03-03T07:35:31.122Z,11.90
2019-03-03T07:36:31.112Z,11.60
2019-03-03T07:37:31.109Z,11.00
2019-03-03T07:38:31.089Z,11.40
2019-03-03T07:39:31.079Z,10.90
2019-03-03T07:40:31.068Z,10.40
2019-03-03T07:41:31.057Z,12.90
2019-03-03T07:42:31.057Z,11.10
2019-03-03T07:43:31.034Z,11.70
2019-03-03T07:44:31.026Z,9.30
2019-03-03T07:45:31.012Z,12.30
2019-03-03T07:46:31.003Z,11.10
2019-03-03T07:47:30.999Z,9.70
2019-03-03T07:48:30.979Z,9.40
2019-03-03T07:49:30.970Z,11.80
2019-03-03T07:50:30.970Z,10.40
2019-03-03T07:51:30.950Z,10.50
2019-03-03T07:52:32.904Z,11.50
2019-03-03T07:53:30.926Z,10.00
2019-03-03T07:54:30.918Z,12.00
2019-03-03T07:55:30.905Z,10.00
2019-03-03T07:56:30.894Z,11.80
2019-03-03T07:57:30.890Z,11.50
2019-03-03T07:58:30.870Z,9.80
2019-03-03T07:59:30.859Z,10.80
2019-03-03T08:00:30.852Z,11.40
2019-03-03T08:01:30.839Z,9.70
2019-03-03T08:02:30.855Z,10.20
2019-03-03T08:03:30.817Z,10.30
2019-03-03T08:04:30.806Z,9.10
2019-03-03T08:05:30.796Z,10.00
2019-03-03T08:06:30.785Z,9.50
2019-03-03T08:07:30.786Z,9.60
2019-03-03T08:08:30.763Z,9.10
2019-03-03T08:09:30.751Z,10.20
2019-03-03T08:10:30.742Z,9.00
2019-03-03T08:11:30.731Z,10.90
2019-03-03T08:12:30.727Z,10.20
2019-03-03T08:13:30.711Z,10.90
2019-03-03T08:14:30.698Z,9.00
2019-03-03T08:15:30.686Z,9.10
2019-03-03T08:16:30.676Z,10.50
2019-03-03T08:17:30.700Z,9.30
2019-03-03T08:18:30.657Z,10.80
2019-03-03T08:19:30.643Z,10.00
2019-03-03T08:20:30.633Z,8.30
2019-03-03T08:21:30.622Z,9.40
2019-03-03T08:22:30.621Z,10.20
2019-03-03T08:23:30.651Z,9.40
2019-03-03T08:24:30.589Z,9.80
2019-03-03T08:25:30.578Z,8.60
2019-03-03T08:26:30.570Z,8.70
2019-03-03T08:27:30.565Z,9.50
2019-03-03T08:28:30.547Z,9.30
2019-03-03T08:29:30.538Z,10.80
2019-03-03T08:30:31.102Z,10.00
2019-03-03T08:31:30.513Z,10.10
2019-03-03T08:32:30.510Z,9.80
2019-03-03T08:33:30.491Z,9.20
2019-03-03T08:34:30.483Z,9.90
2019-03-03T08:35:30.513Z,10.60
2019-03-03T08:36:30.460Z,8.40
2019-03-03T08:37:30.456Z,9.70
2019-03-03T08:38:30.437Z,8.50
2019-03-03T08:39:30.426Z,9.70
2019-03-03T08:40:30.421Z,9.30
2019-03-03T08:41:30.406Z,9.40
2019-03-03T08:42:30.428Z,9.30
2019-03-03T08:43:30.383Z,9.10
2019-03-03T08:44:30.372Z,9.10
2019-03-03T08:45:30.365Z,8.80
2019-03-03T08:46:30.352Z,9.60
2019-03-03T08:47:30.341Z,8.50
2019-03-03T08:48:30.339Z,9.40
2019-03-03T08:49:30.319Z,9.40
2019-03-03T08:50:30.307Z,9.10
2019-03-03T08:51:30.297Z,10.80
2019-03-03T08:52:30.287Z,10.40
2019-03-03T08:53:30.286Z,8.80
2019-03-03T08:54:30.267Z,9.40
2019-03-03T08:55:30.256Z,11.70
2019-03-03T08:56:30.243Z,9.20
2019-03-03T08:57:30.234Z,9.80
2019-03-03T08:58:30.232Z,15.40
2019-03-03T08:59:30.214Z,10.20
2019-03-03T09:00:30.208Z,10.20
2019-03-03T09:01:30.197Z,10.60
2019-03-03T09:02:30.180Z,10.30
2019-03-03T09:03:30.204Z,10.00
2019-03-03T09:04:30.157Z,10.20
2019-03-03T09:05:30.149Z,10.30
2019-03-03T09:06:30.136Z,9.80
2019-03-03T09:07:30.140Z,10.70
2019-03-03T09:08:30.114Z,9.00
2019-03-03T09:09:30.130Z,10.80
2019-03-03T09:10:30.098Z,9.40
2019-03-03T09:11:30.086Z,9.50
2019-03-03T09:12:30.071Z,10.30
2019-03-03T09:13:30.066Z,9.00
2019-03-03T09:14:30.063Z,9.60
2019-03-03T09:15:30.040Z,10.20
2019-03-03T09:16:30.032Z,9.80
2019-03-03T09:17:30.024Z,11.10
2019-03-03T09:18:30.016Z,10.70
2019-03-03T09:19:30.007Z,9.90
2019-03-03T09:20:29.986Z,10.00
2019-03-03T09:21:29.979Z,12.00
2019-03-03T09:22:29.965Z,9.40
2019-03-03T09:23:29.954Z,10.70
2019-03-03T09:24:29.953Z,10.00
2019-03-03T09:25:29.933Z,10.10
2019-03-03T09:26:29.923Z,10.00
2019-03-03T09:27:29.912Z,9.20
2019-03-03T09:28:29.902Z,10.80
2019-03-03T09:29:29.906Z,9.70
2019-03-03T09:30:29.881Z,10.10
2019-03-03T09:31:29.893Z,11.10
2019-03-03T09:32:29.859Z,10.20
2019-03-03T09:33:29.847Z,9.50
2019-03-03T09:34:29.838Z,9.40
2019-03-03T09:35:29.842Z,9.70
2019-03-03T09:36:29.815Z,10.40
2019-03-03T09:37:29.805Z,10.20
2019-03-03T09:38:29.794Z,11.20
2019-03-03T09:39:29.785Z,9.50
2019-03-03T09:40:29.780Z,9.30
2019-03-03T09:41:29.762Z,9.90
2019-03-03T09:42:29.751Z,9.20
2019-03-03T09:43:29.740Z,9.50
2019-03-03T09:44:29.730Z,11.60
2019-03-03T09:45:29.729Z,9.50
2019-03-03T09:46:29.713Z,9.80
2019-03-03T09:47:29.699Z,10.00
2019-03-03T09:48:29.687Z,11.30
2019-03-03T09:49:29.677Z,9.50
2019-03-03T09:50:29.677Z,11.50
2019-03-03T09:51:29.658Z,9.50
2019-03-03T09:52:29.649Z,10.70
2019-03-03T09:53:29.636Z,9.90
2019-03-03T09:54:29.623Z,10.40
2019-03-03T09:55:29.622Z,10.00
2019-03-03T09:56:29.605Z,11.30
2019-03-03T09:57:29.590Z,11.30
2019-03-03T09:58:29.580Z,14.50
2019-03-03T09:59:29.569Z,9.90
2019-03-03T10:00:29.568Z,10.20
2019-03-03T10:01:29.551Z,11.90
2019-03-03T10:02:29.538Z,8.80
2019-03-03T10:03:29.525Z,11.10
2019-03-03T10:04:29.514Z,9.80
2019-03-03T10:05:29.513Z,11.40
2019-03-03T10:06:29.493Z,9.90
2019-03-03T10:07:29.482Z,10.00
2019-03-03T10:08:29.474Z,9.10
2019-03-03T10:09:29.461Z,9.90
2019-03-03T10:10:29.458Z,9.00
2019-03-03T10:11:29.440Z,9.50
2019-03-03T10:12:29.428Z,10.50
2019-03-03T10:13:29.418Z,10.70
2019-03-03T10:14:29.407Z,10.30
2019-03-03T10:15:29.405Z,9.80
2019-03-03T10:16:29.386Z,11.60
2019-03-03T10:17:29.375Z,9.00
2019-03-03T10:18:29.363Z,9.30
2019-03-03T10:19:29.353Z,9.80
2019-03-03T10:20:29.350Z,11.70
2019-03-03T10:21:29.904Z,9.70
2019-03-03T10:22:29.343Z,12.10
2019-03-03T10:23:29.310Z,10.60
2019-03-03T10:24:29.300Z,10.10
2019-03-03T10:25:29.306Z,9.20
2019-03-03T10:26:29.279Z,11.40
2019-03-03T10:27:29.301Z,10.40
2019-03-03T10:28:29.261Z,11.10
2019-03-03T10:29:29.246Z,11.80
2019-03-03T10:30:29.244Z,10.70
2019-03-03T10:31:29.226Z,11.80
2019-03-03T10:32:29.214Z,10.30
2019-03-03T10:33:29.204Z,12.00
2019-03-03T10:34:29.199Z,9.80
2019-03-03T10:35:29.191Z,11.10
2019-03-03T10:36:29.171Z,9.30
2019-03-03T10:37:29.161Z,11.00
2019-03-03T10:38:35.879Z,9.90
2019-03-03T10:39:30.140Z,9.80
2019-03-03T10:40:29.136Z,11.50
2019-03-03T10:41:29.117Z,10.90
2019-03-03T10:42:29.105Z,11.40
2019-03-03T10:43:29.096Z,11.60
2019-03-03T10:44:29.086Z,14.00
2019-03-03T10:45:29.083Z,14.30
2019-03-03T10:46:29.064Z,13.80
2019-03-03T10:47:29.053Z,12.10
2019-03-03T10:48:29.050Z,11.80
2019-03-03T10:49:29.033Z,12.50
2019-03-03T10:50:29.032Z,10.90
2019-03-03T10:51:29.011Z,11.30
2019-03-03T10:52:28.998Z,11.80
2019-03-03T10:53:28.989Z,13.20
2019-03-03T10:54:28.982Z,11.80
2019-03-03T10:55:28.976Z,13.30
2019-03-03T10:56:28.956Z,14.10
2019-03-03T10:57:30.384Z,13.40
2019-03-03T10:58:28.934Z,13.00
2019-03-03T10:59:28.925Z,10.80
2019-03-03T11:00:28.922Z,12.20
2019-03-03T11:01:28.902Z,14.50
2019-03-03T11:02:28.891Z,13.40
2019-03-03T11:03:28.883Z,12.50
2019-03-03T11:04:28.870Z,10.30
2019-03-03T11:05:28.884Z,11.60
2019-03-03T11:06:28.848Z,9.90
2019-03-03T11:07:28.838Z,11.50
2019-03-03T11:08:28.827Z,10.80
2019-03-03T11:09:28.815Z,12.10
2019-03-03T11:10:28.805Z,12.30
2019-03-03T11:11:28.804Z,13.90
2019-03-03T11:12:28.783Z,9.60
2019-03-03T11:13:28.778Z,11.70
2019-03-03T11:14:28.761Z,13.80
2019-03-03T11:15:28.757Z,11.80
2019-03-03T11:16:28.747Z,13.40
2019-03-03T11:17:28.731Z,11.70
2019-03-03T11:18:28.720Z,11.40
2019-03-03T11:19:28.707Z,12.00
2019-03-03T11:20:28.696Z,15.00
2019-03-03T11:21:28.694Z,11.80
2019-03-03T11:22:28.674Z,11.00
2019-03-03T11:23:28.666Z,9.60
2019-03-03T11:24:28.652Z,11.40
2019-03-03T11:25:28.640Z,12.40
2019-03-03T11:26:28.638Z,11.10
2019-03-03T11:27:28.620Z,10.60
2019-03-03T11:28:28.610Z,10.40
2019-03-03T11:29:28.597Z,11.20
2019-03-03T11:30:28.587Z,10.90
2019-03-03T11:31:28.586Z,10.90
2019-03-03T11:32:28.563Z,11.20
2019-03-03T11:33:28.555Z,17.80
2019-03-03T11:34:29.810Z,10.70
2019-03-03T11:35:28.531Z,11.40
2019-03-03T11:36:28.527Z,11.90
2019-03-03T11:37:28.508Z,11.20
2019-03-03T11:38:28.497Z,10.70
2019-03-03T11:39:28.484Z,11.80
2019-03-03T11:40:28.479Z,11.80
2019-03-03T11:41:28.473Z,11.10
2019-03-03T11:42:28.453Z,10.70
2019-03-03T11:43:28.441Z,12.30
2019-03-03T11:44:28.436Z,10.40
2019-03-03T11:45:28.421Z,12.20
2019-03-03T11:46:28.418Z,10.50
2019-03-03T11:47:28.397Z,11.10
2019-03-03T11:48:28.386Z,10.10
2019-03-03T11:49:28.376Z,10.50
2019-03-03T11:50:28.364Z,12.20
2019-03-03T11:51:28.362Z,11.70
2019-03-03T11:52:28.342Z,9.70
2019-03-03T11:53:28.333Z,11.20
2019-03-03T11:54:28.320Z,10.80
2019-03-03T11:55:28.310Z,11.30
2019-03-03T11:56:28.307Z,9.40
2019-03-03T11:57:28.288Z,11.90
2019-03-03T11:58:28.279Z,10.80
2019-03-03T11:59:28.264Z,11.60
2019-03-03T12:00:28.254Z,8.90
2019-03-03T12:01:28.252Z,14.30
2019-03-03T12:02:28.232Z,12.70
2019-03-03T12:03:28.221Z,10.40
2019-03-03T12:04:28.208Z,9.30
2019-03-03T12:05:28.196Z,12.20
2019-03-03T12:06:28.195Z,12.40
2019-03-03T12:07:28.175Z,11.40
2019-03-03T12:08:28.166Z,11.80
2019-03-03T12:09:28.154Z,11.60
2019-03-03T12:10:28.142Z,12.20
2019-03-03T12:11:28.141Z,11.00
2019-03-03T12:12:28.119Z,11.50
2019-03-03T12:13:28.107Z,12.00
2019-03-03T12:14:28.098Z,11.30
2019-03-03T12:15:28.089Z,12.40
2019-03-03T12:16:28.083Z,12.60
2019-03-03T12:17:28.066Z,13.90
2019-03-03T12:18:28.052Z,13.80
2019-03-03T12:19:28.040Z,13.10
2019-03-03T12:20:28.033Z,13.00
2019-03-03T12:21:28.044Z,13.10
2019-03-03T12:22:28.007Z,13.60
2019-03-03T12:23:27.996Z,12.70
2019-03-03T12:24:27.988Z,13.20
2019-03-03T12:25:28.397Z,10.70
2019-03-03T12:26:27.990Z,13.20
2019-03-03T12:27:27.960Z,14.00
2019-03-03T12:28:27.941Z,12.70
2019-03-03T12:29:27.930Z,11.30
2019-03-03T12:30:28.651Z,12.90
2019-03-03T12:31:27.907Z,15.10
2019-03-03T12:32:27.905Z,12.30
2019-03-03T12:33:27.885Z,13.80
2019-03-03T12:34:27.877Z,12.70
2019-03-03T12:35:27.863Z,12.70
2019-03-03T12:36:27.853Z,15.60
2019-03-03T12:37:27.850Z,12.30
2019-03-03T12:38:27.830Z,14.90
2019-03-03T12:39:27.818Z,14.50
2019-03-03T12:40:27.807Z,16.30
2019-03-03T12:41:27.824Z,14.80
2019-03-03T12:42:27.795Z,14.50
2019-03-03T12:43:27.774Z,13.40
2019-03-03T12:44:27.763Z,13.50
2019-03-03T12:45:27.782Z,14.70
2019-03-03T12:46:27.741Z,16.60
2019-03-03T12:47:27.740Z,12.90
2019-03-03T12:48:27.806Z,12.70
2019-03-03T12:49:27.708Z,14.50
2019-03-03T12:50:28.468Z,12.50
2019-03-03T12:51:27.699Z,14.80
2019-03-03T12:52:27.683Z,14.40
2019-03-03T12:53:27.663Z,12.50
2019-03-03T12:54:27.720Z,12.70
2019-03-03T12:55:27.641Z,12.10